Time;durP1;ratioP1;P1;durP2;ratioP2;P2;SDS_P1;SDS_P2;PMS_P1;PMS_P2;Temp;Humidity;BMP_temperature;BMP_pressure;BME280_temperature;BME280_humidity;BME280_pressure;Samples;Min_cycle;Max_cycle;Signal;HPM_P1;HPM_P2
2022/10/19 00:04:22;;;;;;;283.20;26.42;;;;;;;13.05;70.43;101051.53;10381015;28;20049;-66
2022/10/19 00:09:24;;;;;;;479.20;35.67;;;;;;;12.89;70.88;101051.47;10383293;28;20050;-67
2022/10/19 00:14:26;;;;;;;460.08;31.45;;;;;;;12.87;70.87;101041.06;10377526;28;20373;-66
2022/10/19 00:19:28;;;;;;;474.38;28.15;;;;;;;12.86;70.84;101033.25;10377756;28;20211;-66
2022/10/19 00:24:30;;;;;;;421.73;33.65;;;;;;;12.90;70.99;101037.44;10381972;28;20542;-66
2022/10/19 00:29:31;;;;;;;658.28;40.67;;;;;;;12.90;70.55;101034.81;10377885;28;20498;-67
2022/10/19 00:34:33;;;;;;;115.38;27.48;;;;;;;12.83;70.78;101031.63;10380181;28;20560;-66
2022/10/19 00:39:35;;;;;;;528.55;42.83;;;;;;;13.00;70.76;101030.78;10381897;28;20088;-67
2022/10/19 00:44:37;;;;;;;401.98;33.60;;;;;;;12.78;70.54;101017.88;10381204;28;20057;-67
2022/10/19 00:49:43;;;;;;;518.38;32.95;;;;;;;12.69;70.50;101015.75;10379483;28;20153;-66
2022/10/19 00:54:47;;;;;;;735.30;40.90;;;;;;;12.76;70.67;101018.91;10383922;28;20085;-67
2022/10/19 00:59:50;;;;;;;1074.43;43.17;;;;;;;12.82;70.67;101015.97;10386874;28;20130;-67
2022/10/19 01:04:52;;;;;;;476.27;34.17;;;;;;;12.66;70.95;101021.16;10389208;28;20123;-67
2022/10/19 01:09:54;;;;;;;359.98;26.90;;;;;;;12.70;70.36;101027.94;10388740;28;20061;-67
2022/10/19 01:15:12;;;;;;;369.00;31.15;;;;;;;12.71;70.24;101019.16;10388638;28;20638;-66
2022/10/19 01:20:44;;;;;;;425.90;28.15;;;;;;;12.53;70.00;101025.34;10387663;28;20061;-67
2022/10/19 01:26:20;;;;;;;807.95;30.73;;;;;;;12.49;70.34;101022.94;10389120;28;20057;-66
2022/10/19 01:31:40;;;;;;;717.63;44.33;;;;;;;12.44;70.30;101023.16;10381285;28;20042;-66
2022/10/19 01:37:01;;;;;;;619.90;40.85;;;;;;;12.19;70.09;101022.66;10386884;28;20049;-67
2022/10/19 01:42:22;;;;;;;388.60;39.50;;;;;;;12.11;70.55;101012.53;10388979;28;20097;-66
2022/10/19 01:47:40;;;;;;;111.82;22.92;;;;;;;12.30;70.31;101012.50;10385853;28;20283;-66
2022/10/19 01:52:42;;;;;;;634.42;41.28;;;;;;;12.31;69.99;101014.22;10389174;28;20053;-66
2022/10/19 01:57:55;;;;;;;638.13;29.83;;;;;;;12.09;70.25;101024.00;10387815;28;20461;-67
2022/10/19 02:02:59;;;;;;;1080.90;43.72;;;;;;;12.08;70.50;101019.69;10391174;28;20053;-67
2022/10/19 02:08:11;;;;;;;1455.72;65.28;;;;;;;12.03;70.29;101017.31;10393128;28;20045;-67
2022/10/19 02:13:15;;;;;;;556.78;31.92;;;;;;;11.91;70.76;101010.03;10393418;28;20076;-67
2022/10/19 02:18:25;;;;;;;796.50;40.03;;;;;;;11.80;70.83;101007.09;10392561;28;20053;-66
2022/10/19 02:23:27;;;;;;;384.67;26.93;;;;;;;11.79;71.00;101004.53;10394194;28;20057;-66
2022/10/19 02:28:29;;;;;;;746.35;32.03;;;;;;;11.65;70.97;101001.72;10391732;28;20569;-66
2022/10/19 02:33:31;;;;;;;206.48;29.98;;;;;;;11.59;70.97;101002.00;10393921;28;20494;-66
2022/10/19 02:38:33;;;;;;;402.52;29.85;;;;;;;11.70;70.80;100989.25;10394716;28;20112;-66
2022/10/19 02:43:38;;;;;;;605.70;40.97;;;;;;;11.63;71.00;100987.81;10392364;28;20127;-67
2022/10/19 02:48:41;;;;;;;384.08;32.72;;;;;;;11.63;70.75;100987.81;10387274;28;21442;-66
2022/10/19 02:53:43;;;;;;;358.05;35.47;;;;;;;11.74;70.29;100980.31;10389179;28;20135;-66
2022/10/19 02:58:45;;;;;;;440.60;39.58;;;;;;;11.82;70.23;100991.28;10392279;28;20096;-66
2022/10/19 03:03:47;;;;;;;737.55;52.53;;;;;;;11.40;70.17;100991.53;10388979;28;20057;-66
2022/10/19 03:08:49;;;;;;;507.52;35.67;;;;;;;11.25;69.99;100985.22;10384484;28;20127;-66
2022/10/19 03:13:51;;;;;;;628.72;38.47;;;;;;;11.02;70.77;100987.16;10386839;28;20145;-66
2022/10/19 03:18:53;;;;;;;871.92;44.45;;;;;;;10.89;71.31;100989.47;10385434;28;20049;-65
2022/10/19 03:23:55;;;;;;;642.33;27.65;;;;;;;10.88;71.09;100982.53;10384011;28;20166;-66
2022/10/19 03:28:57;;;;;;;520.40;31.67;;;;;;;11.03;71.28;100981.03;10382489;28;20897;-66
2022/10/19 03:33:59;;;;;;;332.05;24.85;;;;;;;11.32;70.80;100984.03;10380548;28;20049;-66
2022/10/19 03:39:03;;;;;;;1023.80;46.65;;;;;;;11.35;70.29;100982.19;10381361;28;20192;-66
2022/10/19 03:44:06;;;;;;;689.10;35.33;;;;;;;11.18;70.91;100975.09;10384460;28;20083;-66
2022/10/19 03:49:12;;;;;;;931.05;50.20;;;;;;;11.39;70.30;100973.25;10385291;28;20112;-66
2022/10/19 03:54:16;;;;;;;913.63;42.78;;;;;;;11.28;70.78;100971.13;10383764;28;20146;-67
2022/10/19 03:59:17;;;;;;;343.55;21.85;;;;;;;11.18;70.33;100969.88;10385486;28;20643;-66
2022/10/19 04:04:19;;;;;;;569.17;26.73;;;;;;;11.10;70.50;100980.69;10380756;28;20718;-66
2022/10/19 04:09:21;;;;;;;266.73;18.90;;;;;;;11.01;70.56;100983.69;10385109;28;20053;-66
2022/10/19 04:14:24;;;;;;;764.22;34.17;;;;;;;11.11;69.93;100979.75;10382901;28;20119;-66
2022/10/19 04:19:33;;;;;;;373.48;25.33;;;;;;;10.86;70.09;100971.28;10385120;28;20073;-67
2022/10/19 04:24:35;;;;;;;169.13;20.77;;;;;;;10.76;70.64;100977.84;10385287;28;20056;-66
2022/10/19 04:29:37;;;;;;;253.05;22.85;;;;;;;10.59;70.62;100990.81;10382780;28;20140;-67
2022/10/19 04:34:38;;;;;;;421.08;33.35;;;;;;;10.73;70.76;100991.06;10382190;28;20057;-66
2022/10/19 04:39:42;;;;;;;375.55;26.25;;;;;;;11.02;70.57;100985.41;10384412;28;20046;-67
2022/10/19 04:44:44;;;;;;;239.40;23.85;;;;;;;10.86;70.30;100994.84;10384462;28;20057;-66
2022/10/19 04:49:45;;;;;;;623.28;39.42;;;;;;;10.95;70.00;100993.59;10380966;28;20076;-66
2022/10/19 04:54:47;;;;;;;77.55;17.02;;;;;;;10.82;70.29;100988.03;10382442;28;20559;-67
2022/10/19 04:59:49;;;;;;;293.35;30.67;;;;;;;10.81;70.16;100988.94;10383229;28;20138;-66
2022/10/19 05:04:51;;;;;;;400.35;30.90;;;;;;;10.71;69.92;100994.66;10384342;28;20057;-66
2022/10/19 05:09:52;;;;;;;488.60;33.20;;;;;;;10.49;69.61;100990.34;10379695;28;20652;-67
2022/10/19 05:14:54;;;;;;;332.90;19.30;;;;;;;10.39;70.20;100990.81;10381582;28;20049;-66
2022/10/19 05:19:56;;;;;;;833.55;33.25;;;;;;;10.21;70.53;100987.22;10383125;28;20046;-67
2022/10/19 05:24:58;;;;;;;113.88;16.17;;;;;;;10.28;71.06;100982.53;10382966;28;20045;-66
2022/10/19 05:29:59;;;;;;;531.00;21.85;;;;;;;10.19;70.34;100980.34;10379543;28;20064;-66
2022/10/19 05:35:01;;;;;;;342.60;20.17;;;;;;;9.98;70.83;100981.19;10381089;28;20731;-66
2022/10/19 05:40:04;;;;;;;987.30;36.55;;;;;;;10.07;70.26;100983.47;10383657;28;20045;-66
2022/10/19 05:45:06;;;;;;;978.92;32.17;;;;;;;9.73;70.19;100976.09;10388849;28;20049;-66
2022/10/19 05:50:08;;;;;;;277.20;19.25;;;;;;;9.67;71.04;100983.34;10389206;28;20494;-66
2022/10/19 05:55:10;;;;;;;370.70;19.27;;;;;;;9.88;70.71;100979.88;10389892;28;20053;-66
2022/10/19 06:00:12;;;;;;;409.75;23.42;;;;;;;10.04;69.97;100978.34;10389204;28;20118;-66
2022/10/19 06:05:14;;;;;;;255.38;14.07;;;;;;;9.68;69.18;100983.28;10390438;28;20097;-67
2022/10/19 06:10:16;;;;;;;363.17;22.27;;;;;;;9.31;70.04;100976.00;10388126;28;20625;-66
2022/10/19 06:15:18;;;;;;;359.65;27.13;;;;;;;9.19;70.12;100986.91;10387427;28;20091;-66
2022/10/19 06:20:20;;;;;;;161.55;15.98;;;;;;;9.14;70.46;100988.81;10387704;28;20049;-66
2022/10/19 06:25:21;;;;;;;410.83;18.77;;;;;;;9.00;70.39;100993.69;10387314;28;20050;-67
2022/10/19 06:30:24;;;;;;;254.52;17.55;;;;;;;8.97;71.01;100996.44;10388854;28;20437;-66
2022/10/19 06:35:26;;;;;;;215.90;16.88;;;;;;;9.23;70.93;100995.47;10386581;28;20409;-66
2022/10/19 06:40:28;;;;;;;224.63;15.88;;;;;;;9.32;70.74;100995.13;10388774;28;20104;-66
2022/10/19 06:45:30;;;;;;;293.63;19.35;;;;;;;9.54;70.38;100998.63;10388640;28;20069;-66
2022/10/19 06:50:36;;;;;;;386.20;23.88;;;;;;;9.58;69.84;101008.03;10388786;28;20060;-67
2022/10/19 06:55:38;;;;;;;514.38;31.00;;;;;;;9.53;69.70;101009.97;10386961;28;20053;-67
2022/10/19 07:00:40;;;;;;;251.60;18.35;;;;;;;9.41;70.11;101006.06;10387285;28;20049;-66
2022/10/19 07:05:42;;;;;;;264.73;24.63;;;;;;;9.59;69.94;101014.94;10385318;28;20563;-67
2022/10/19 07:10:48;;;;;;;165.75;24.23;;;;;;;9.49;69.79;101014.47;10388148;28;20052;-66
2022/10/19 07:16:04;;;;;;;182.27;20.08;;;;;;;9.52;69.84;101024.78;10384883;28;20449;-66
2022/10/19 07:21:09;;;;;;;24.17;13.93;;;;;;;9.47;69.99;101033.69;10386717;28;20065;-66
2022/10/19 07:26:14;;;;;;;36.53;17.23;;;;;;;9.78;69.75;101041.25;10386219;28;20037;-66
2022/10/19 07:31:21;;;;;;;26.92;14.90;;;;;;;9.78;69.10;101041.25;10385597;28;20053;-66
2022/10/19 07:36:24;;;;;;;23.75;13.65;;;;;;;9.74;69.45;101044.88;10385113;28;20060;-66
2022/10/19 07:41:26;;;;;;;30.70;16.50;;;;;;;9.74;69.44;101037.91;10385981;28;20092;-66
2022/10/19 07:46:32;;;;;;;23.08;13.77;;;;;;;9.96;69.26;101030.94;10384089;28;20092;-66
2022/10/19 07:51:34;;;;;;;33.53;17.30;;;;;;;10.05;69.12;101038.41;10386207;28;20060;-66
2022/10/19 07:56:36;;;;;;;19.88;11.10;;;;;;;10.22;68.77;101037.69;10385635;28;21027;-66
2022/10/19 08:01:43;;;;;;;25.70;12.93;;;;;;;10.17;68.20;101035.31;10383232;28;20509;-66
2022/10/19 08:06:45;;;;;;;23.95;14.13;;;;;;;10.22;68.42;101038.56;10384346;28;20733;-66
2022/10/19 08:11:47;;;;;;;22.55;12.73;;;;;;;10.42;68.24;101030.75;10384120;28;20053;-66
2022/10/19 08:16:50;;;;;;;23.38;12.38;;;;;;;10.35;67.69;101033.69;10381228;28;20049;-72
2022/10/19 08:21:52;;;;;;;27.35;11.90;;;;;;;10.48;67.59;101037.50;10386083;28;20144;-71
2022/10/19 08:26:54;;;;;;;27.75;13.57;;;;;;;10.66;67.98;101023.66;10383829;28;20049;-71
2022/10/19 08:31:56;;;;;;;21.38;10.98;;;;;;;10.85;67.12;101027.16;10384840;28;20061;-73
2022/10/19 08:37:00;;;;;;;19.05;10.80;;;;;;;10.95;66.62;101019.78;10383351;28;20049;-77
2022/10/19 08:42:18;;;;;;;21.35;10.40;;;;;;;11.13;66.42;101011.97;10384642;28;20617;-73
2022/10/19 08:47:32;;;;;;;19.65;11.18;;;;;;;11.37;65.25;101015.25;10385165;28;20061;-78
2022/10/19 08:52:35;;;;;;;25.45;10.10;;;;;;;11.47;65.23;101011.28;10370582;28;20456;-72
2022/10/19 08:57:46;;;;;;;18.58;10.35;;;;;;;11.49;64.78;101011.22;10382944;28;20049;-71
2022/10/19 09:02:55;;;;;;;;;;;;;;;10.96;66.14;101010.97;10383264;28;20068;-72
2022/10/19 09:07:58;;;;;;;23.40;10.68;;;;;;;11.21;66.16;100998.53;10384496;28;19932;-73
2022/10/19 09:13:06;;;;;;;17.45;11.23;;;;;;;11.39;65.50;100989.84;10385170;28;20052;-73
2022/10/19 09:18:13;;;;;;;23.45;11.13;;;;;;;11.19;65.25;100984.66;10390987;28;20115;-74
2022/10/19 09:23:42;;;;;;;18.42;11.13;;;;;;;11.51;65.11;100977.94;10392291;28;20045;-74
2022/10/19 09:28:57;;;;;;;15.98;10.35;;;;;;;11.88;64.19;100967.41;10392798;28;20057;-74
2022/10/19 09:34:04;;;;;;;21.98;10.77;;;;;;;11.92;64.40;100976.81;10393109;28;20684;-74
2022/10/19 09:39:11;;;;;;;18.33;10.05;;;;;;;12.09;63.35;100967.19;10393820;28;20053;-74
2022/10/19 09:44:13;;;;;;;17.83;9.63;;;;;;;12.17;63.52;100956.34;10392094;28;20391;-73
2022/10/19 09:49:14;;;;;;;15.90;8.35;;;;;;;12.62;62.92;100955.78;10384367;28;20050;-73
2022/10/19 09:54:38;;;;;;;14.52;7.63;;;;;;;13.08;61.25;100954.19;10387519;28;20049;-72
2022/10/19 09:59:41;;;;;;;16.02;7.45;;;;;;;13.20;61.79;100948.28;10388651;28;20140;-73
2022/10/19 10:05:05;;;;;;;15.98;8.02;;;;;;;12.92;60.69;100946.31;10388834;28;20057;-74
2022/10/19 10:10:27;;;;;;;14.63;7.68;;;;;;;13.31;60.77;100948.56;10389412;28;20049;-73
2022/10/19 10:15:55;;;;;;;13.77;6.88;;;;;;;13.68;60.02;100945.59;10390837;28;20111;-72
2022/10/19 10:21:23;;;;;;;15.10;6.90;;;;;;;14.19;58.23;100944.38;10390809;28;20064;-73
2022/10/19 10:26:27;;;;;;;13.80;6.68;;;;;;;14.28;58.48;100944.69;10386186;28;20132;-72
2022/10/19 10:31:29;;;;;;;14.80;6.50;;;;;;;14.28;58.42;100938.56;10390388;28;20049;-72
2022/10/19 10:36:32;;;;;;;10.73;6.38;;;;;;;14.37;58.04;100930.97;10389969;28;20060;-71
2022/10/19 10:41:39;;;;;;;14.75;6.35;;;;;;;14.24;58.28;100930.03;10389539;28;20049;-72
2022/10/19 10:47:02;;;;;;;17.15;6.63;;;;;;;14.37;57.50;100928.34;10390197;28;20057;-72
2022/10/19 10:52:08;;;;;;;12.82;6.38;;;;;;;14.32;58.67;100913.78;10388616;28;20053;-72
2022/10/19 10:57:18;;;;;;;16.23;6.50;;;;;;;14.04;58.98;100906.69;10389302;28;20049;-72
2022/10/19 11:02:29;;;;;;;16.55;5.93;;;;;;;13.88;58.76;100911.09;10374443;28;20061;-73
2022/10/19 11:07:33;;;;;;;12.93;6.03;;;;;;;13.71;59.55;100892.84;10388666;28;20064;-72
2022/10/19 11:12:45;;;;;;;13.52;6.00;;;;;;;13.78;58.48;100886.28;10371121;28;20084;-72
2022/10/19 11:18:20;;;;;;;12.85;6.20;;;;;;;13.61;58.54;100874.13;10389200;28;20582;-72
2022/10/19 11:23:43;;;;;;;16.55;6.70;;;;;;;13.70;58.62;100868.34;10380045;28;20053;-72
2022/10/19 11:28:54;;;;;;;12.30;5.53;;;;;;;13.84;58.74;100861.44;10388230;28;20064;-72
2022/10/19 11:34:05;;;;;;;11.45;5.93;;;;;;;13.76;58.28;100849.56;10386628;28;20052;-72
2022/10/19 11:39:13;;;;;;;14.13;6.05;;;;;;;13.92;58.50;100849.53;10387280;28;20137;-72
2022/10/19 11:44:36;;;;;;;15.30;6.93;;;;;;;13.74;57.19;100838.31;10385536;28;20052;-72
2022/10/19 11:49:49;;;;;;;11.15;6.03;;;;;;;13.90;59.17;100830.38;10387191;28;21054;-71
2022/10/19 11:55:30;;;;;;;12.82;6.72;;;;;;;14.12;58.38;100822.91;10387372;28;20050;-71
2022/10/19 12:01:02;;;;;;;15.70;6.72;;;;;;;14.15;58.70;100808.69;10378508;28;20107;-71
2022/10/19 12:06:35;;;;;;;11.93;6.70;;;;;;;14.07;58.19;100801.28;10386195;28;20060;-72
2022/10/19 12:12:01;;;;;;;12.27;6.25;;;;;;;13.97;58.98;100788.75;10386218;28;20524;-71
2022/10/19 12:17:32;;;;;;;10.95;6.53;;;;;;;14.29;58.59;100792.91;10386639;28;20803;-71
2022/10/19 12:22:36;;;;;;;12.38;6.65;;;;;;;14.36;59.03;100791.59;10385810;28;20056;-72
2022/10/19 12:27:40;;;;;;;12.15;6.07;;;;;;;14.39;58.58;100775.63;10372369;28;20890;-72
2022/10/19 12:33:02;;;;;;;10.63;6.20;;;;;;;14.53;57.52;100763.31;10383153;28;20050;-71
2022/10/19 12:38:44;;;;;;;13.88;6.50;;;;;;;14.38;57.45;100755.50;10384377;28;20049;-72
2022/10/19 12:43:58;;;;;;;12.63;6.80;;;;;;;14.56;59.00;100736.81;10384812;28;20084;-72
2022/10/19 12:49:27;;;;;;;11.15;5.82;;;;;;;14.67;57.56;100732.66;10380685;28;20076;-72
2022/10/19 12:54:36;;;;;;;10.32;5.70;;;;;;;14.63;57.38;100741.69;10376670;28;20060;-72
2022/10/19 12:59:38;;;;;;;14.57;5.68;;;;;;;14.72;57.80;100715.59;10391537;28;20497;-72
2022/10/19 13:04:52;;;;;;;11.80;6.15;;;;;;;14.82;56.85;100710.59;10385446;28;20579;-72
2022/10/19 13:10:04;;;;;;;12.93;5.18;;;;;;;14.80;57.24;100707.22;10389348;28;20489;-71
2022/10/19 13:15:34;;;;;;;14.20;5.72;;;;;;;14.90;56.68;100692.53;10390016;28;20037;-71
2022/10/19 13:20:39;;;;;;;14.80;5.73;;;;;;;15.15;57.87;100684.66;10389356;28;20488;-71
2022/10/19 13:26:06;;;;;;;16.83;5.10;;;;;;;15.40;56.96;100672.38;10390036;28;20204;-72
2022/10/19 13:31:32;;;;;;;10.45;4.88;;;;;;;15.47;56.33;100672.78;10388382;28;20600;-71
2022/10/19 13:36:38;;;;;;;11.95;3.90;;;;;;;15.26;56.63;100669.84;10391566;28;20045;-71
2022/10/19 13:41:48;;;;;;;14.43;4.10;;;;;;;15.36;56.30;100664.78;10382533;28;21300;-72
2022/10/19 13:47:21;;;;;;;10.00;4.30;;;;;;;15.24;55.49;100655.94;10389259;28;20045;-72
2022/10/19 13:52:54;;;;;;;13.63;4.03;;;;;;;15.11;56.79;100659.47;10392626;28;20049;-72
2022/10/19 13:58:15;;;;;;;13.48;4.45;;;;;;;14.88;56.47;100657.53;10391906;28;20049;-72
2022/10/19 14:03:35;;;;;;;9.68;3.60;;;;;;;14.63;57.36;100660.06;10389317;28;20156;-72
2022/10/19 14:09:03;;;;;;;14.43;3.63;;;;;;;14.60;57.45;100653.22;10391460;28;20453;-72
2022/10/19 14:14:09;;;;;;;7.72;3.15;;;;;;;14.59;57.70;100649.72;10389160;28;20045;-72
2022/10/19 14:19:26;;;;;;;9.85;3.45;;;;;;;14.68;57.21;100650.94;10386637;28;20768;-72
2022/10/19 14:24:34;;;;;;;12.25;3.70;;;;;;;14.66;57.15;100657.22;10386506;28;20061;-72
2022/10/19 14:29:46;;;;;;;11.85;4.38;;;;;;;14.36;57.97;100650.34;10387658;28;20432;-72
2022/10/19 14:34:49;;;;;;;11.02;3.80;;;;;;;14.37;57.84;100649.38;10387130;28;20067;-71
2022/10/19 14:40:00;;;;;;;10.27;3.85;;;;;;;14.23;57.67;100644.16;10387026;28;20099;-71
2022/10/19 14:45:03;;;;;;;12.25;3.88;;;;;;;14.16;58.14;100649.94;10387186;28;20433;-71
2022/10/19 14:50:07;;;;;;;15.02;3.63;;;;;;;14.08;58.38;100646.94;10385793;28;20042;-72
2022/10/19 14:55:17;;;;;;;13.73;3.28;;;;;;;14.18;58.81;100638.38;10386359;28;20052;-72
2022/10/19 15:00:21;;;;;;;;;;;;;;;13.91;59.00;100633.97;10387040;28;20107;-71
2022/10/19 15:05:28;;;;;;;16.10;3.47;;;;;;;14.15;58.32;100620.13;10384496;28;20045;-71
2022/10/19 15:10:44;;;;;;;9.05;3.20;;;;;;;14.25;58.41;100602.81;10388261;28;20037;-72
2022/10/19 15:15:50;;;;;;;11.57;3.10;;;;;;;14.29;58.08;100595.56;10388908;28;20057;-72
2022/10/19 15:21:11;;;;;;;9.52;3.10;;;;;;;14.21;58.26;100582.06;10388099;28;20045;-72
2022/10/19 15:26:18;;;;;;;11.13;3.65;;;;;;;14.24;59.01;100585.34;10374077;28;20224;-73
2022/10/19 15:31:28;;;;;;;11.90;3.20;;;;;;;14.35;59.09;100585.50;10383708;28;20045;-73
2022/10/19 15:36:31;;;;;;;7.83;3.13;;;;;;;14.43;58.53;100577.13;10387029;28;20515;-73
2022/10/19 15:41:37;;;;;;;10.95;3.28;;;;;;;14.12;58.51;100583.53;10386020;28;20056;-73
2022/10/19 15:46:46;;;;;;;8.25;2.83;;;;;;;14.10;58.20;100588.03;10376840;28;20053;-73
2022/10/19 15:51:49;;;;;;;10.48;2.92;;;;;;;14.04;58.61;100588.44;10386734;28;20458;-73
2022/10/19 15:56:51;;;;;;;15.90;3.30;;;;;;;13.94;58.70;100587.31;10384081;28;20739;-72
2022/10/19 16:01:53;;;;;;;10.27;3.10;;;;;;;14.02;58.58;100589.47;10383601;28;20053;-72
2022/10/19 16:06:56;;;;;;;9.18;2.85;;;;;;;14.06;58.50;100589.16;10382393;28;20600;-72
2022/10/19 16:11:58;;;;;;;11.10;2.90;;;;;;;14.02;58.75;100585.06;10385543;28;20054;-72
2022/10/19 16:17:00;;;;;;;11.88;3.17;;;;;;;13.86;58.79;100580.84;10384200;28;20159;-73
2022/10/19 16:22:02;;;;;;;11.80;3.08;;;;;;;13.67;59.49;100576.75;10382730;28;20055;-73
2022/10/19 16:27:05;;;;;;;11.35;3.10;;;;;;;13.39;59.57;100571.44;10383963;28;20053;-73
2022/10/19 16:32:07;;;;;;;12.43;3.33;;;;;;;13.09;60.07;100567.22;10384883;28;20053;-73
2022/10/19 16:37:09;;;;;;;8.82;2.88;;;;;;;12.90;60.71;100562.22;10383590;28;20320;-73
2022/10/19 16:42:11;;;;;;;11.32;3.35;;;;;;;12.84;60.97;100552.91;10384859;28;20142;-73
2022/10/19 16:47:15;;;;;;;11.90;3.40;;;;;;;12.77;61.17;100562.09;10378665;28;20053;-72
2022/10/19 16:52:17;;;;;;;11.38;3.30;;;;;;;12.72;61.79;100548.38;10380982;28;20564;-72
2022/10/19 16:57:19;;;;;;;9.30;3.30;;;;;;;12.74;61.88;100550.94;10382226;28;20060;-72
2022/10/19 17:02:22;;;;;;;10.73;3.53;;;;;;;12.76;61.75;100547.28;10380705;28;20057;-72
2022/10/19 17:07:24;;;;;;;11.27;3.42;;;;;;;12.82;61.66;100554.78;10384732;28;20381;-73
2022/10/19 17:12:27;;;;;;;15.40;3.17;;;;;;;12.76;61.61;100560.41;10382143;28;20052;-73
2022/10/19 17:17:29;;;;;;;12.70;2.95;;;;;;;12.85;62.06;100565.13;10384213;28;20054;-72
2022/10/19 17:22:30;;;;;;;10.65;3.17;;;;;;;12.86;61.85;100572.03;10382806;28;20054;-73
2022/10/19 17:27:32;;;;;;;7.43;3.08;;;;;;;12.94;61.48;100569.00;10381710;28;20072;-69
2022/10/19 17:32:34;;;;;;;13.35;3.13;;;;;;;13.12;61.66;100569.66;10378127;28;20088;-69
2022/10/19 17:37:36;;;;;;;10.73;3.13;;;;;;;13.04;61.28;100564.88;10386873;28;20080;-68
2022/10/19 17:42:38;;;;;;;12.52;3.00;;;;;;;13.05;61.48;100566.53;10389827;28;20254;-68
2022/10/19 17:47:40;;;;;;;10.52;3.25;;;;;;;12.98;61.36;100567.00;10390745;28;20049;-68
2022/10/19 17:52:42;;;;;;;9.32;3.20;;;;;;;12.80;61.40;100561.91;10389354;28;20053;-67
2022/10/19 17:57:44;;;;;;;11.85;3.17;;;;;;;12.69;61.39;100561.72;10389111;28;20103;-67
2022/10/19 18:02:48;;;;;;;15.25;3.70;;;;;;;12.53;61.82;100553.03;10388955;28;20057;-68
2022/10/19 18:07:50;;;;;;;9.15;2.95;;;;;;;12.52;62.19;100556.56;10390376;28;20542;-68
2022/10/19 18:12:52;;;;;;;9.48;3.00;;;;;;;12.41;62.45;100564.25;10389333;28;20060;-68
2022/10/19 18:17:54;;;;;;;14.73;3.75;;;;;;;12.34;62.41;100562.88;10388501;28;20736;-68
2022/10/19 18:22:56;;;;;;;13.02;4.50;;;;;;;12.36;63.32;100558.41;10390015;28;20085;-67
2022/10/19 18:27:58;;;;;;;11.10;3.72;;;;;;;12.42;62.98;100559.81;10388302;28;20057;-68
2022/10/19 18:33:00;;;;;;;11.35;3.42;;;;;;;12.27;63.45;100547.56;10387700;28;20506;-67
2022/10/19 18:38:03;;;;;;;13.90;3.80;;;;;;;12.10;63.65;100549.38;10388062;28;20055;-67
2022/10/19 18:43:05;;;;;;;12.15;3.60;;;;;;;12.20;63.98;100538.34;10390291;28;20335;-68
2022/10/19 18:48:07;;;;;;;18.58;4.03;;;;;;;12.26;63.43;100530.97;10387238;28;20045;-67
2022/10/19 18:53:09;;;;;;;10.50;3.65;;;;;;;12.06;63.41;100528.63;10388515;28;20498;-67
2022/10/19 18:58:11;;;;;;;11.57;3.92;;;;;;;11.81;64.12;100523.91;10388949;28;20099;-68
2022/10/19 19:03:13;;;;;;;11.93;4.20;;;;;;;11.49;64.37;100518.75;10387762;28;20065;-68
2022/10/19 19:08:15;;;;;;;12.18;4.22;;;;;;;11.44;64.84;100505.91;10388485;28;20057;-68
2022/10/19 19:13:17;;;;;;;10.18;4.75;;;;;;;11.46;64.64;100505.84;10388482;28;20045;-68
2022/10/19 19:18:19;;;;;;;12.82;4.13;;;;;;;11.34;65.24;100502.09;10386790;28;20644;-67
2022/10/19 19:23:21;;;;;;;14.02;5.00;;;;;;;11.25;65.45;100508.66;10388336;28;20115;-68
2022/10/19 19:28:23;;;;;;;14.25;4.53;;;;;;;11.17;65.56;100517.88;10384238;28;20130;-67
2022/10/19 19:33:25;;;;;;;14.02;5.20;;;;;;;11.07;65.84;100517.47;10387508;28;20376;-67
2022/10/19 19:38:27;;;;;;;11.38;4.68;;;;;;;10.98;66.37;100514.47;10385196;28;20572;-68
2022/10/19 19:43:31;;;;;;;14.70;4.50;;;;;;;10.93;66.62;100521.75;10385274;28;20053;-67
2022/10/19 19:48:34;;;;;;;11.15;4.78;;;;;;;10.88;66.66;100506.25;10385040;28;20512;-68
2022/10/19 19:53:36;;;;;;;14.57;5.47;;;;;;;10.73;66.77;100501.81;10386359;28;20045;-68
2022/10/19 19:58:40;;;;;;;13.60;5.97;;;;;;;10.67;66.84;100506.50;10384425;28;20159;-68
2022/10/19 20:03:44;;;;;;;11.13;5.97;;;;;;;10.65;66.85;100511.81;10385211;28;20067;-67
2022/10/19 20:08:47;;;;;;;10.55;5.63;;;;;;;10.79;67.08;100505.88;10386929;28;20056;-67
2022/10/19 20:13:50;;;;;;;9.18;5.45;;;;;;;10.83;67.01;100489.94;10387058;28;20084;-68
2022/10/19 20:18:58;;;;;;;13.18;5.43;;;;;;;10.95;66.73;100488.47;10385370;28;20045;-67
2022/10/19 20:24:01;;;;;;;10.43;5.18;;;;;;;11.10;66.57;100488.53;10385447;28;20140;-66
2022/10/19 20:29:04;;;;;;;9.48;5.13;;;;;;;11.08;66.74;100486.91;10385424;28;20046;-66
2022/10/19 20:34:07;;;;;;;17.45;5.90;;;;;;;10.99;66.71;100488.22;10385544;28;20053;-66
2022/10/19 20:39:09;;;;;;;11.25;5.45;;;;;;;10.94;66.86;100485.00;10384953;28;20453;-66
2022/10/19 20:44:11;;;;;;;11.43;5.88;;;;;;;10.85;66.90;100475.00;10385363;28;20050;-66
2022/10/19 20:49:13;;;;;;;13.27;6.28;;;;;;;10.76;67.06;100478.13;10384453;28;20196;-67
2022/10/19 20:54:15;;;;;;;12.73;6.07;;;;;;;10.70;67.16;100475.81;10383982;28;20548;-67
2022/10/19 20:59:20;;;;;;;13.18;6.65;;;;;;;10.63;67.28;100476.19;10385222;28;20056;-66
2022/10/19 21:04:23;;;;;;;13.57;7.13;;;;;;;10.56;67.53;100472.22;10384589;28;20092;-66
2022/10/19 21:09:25;;;;;;;13.98;6.75;;;;;;;10.52;67.42;100478.53;10384606;28;20049;-66
2022/10/19 21:14:28;;;;;;;16.60;6.97;;;;;;;10.47;67.41;100460.44;10392353;28;20060;-66
2022/10/19 21:19:30;;;;;;;12.93;6.97;;;;;;;10.31;67.65;100452.53;10391269;28;20647;-67
2022/10/19 21:24:34;;;;;;;19.55;7.10;;;;;;;10.26;67.85;100459.75;10392943;28;20053;-66
2022/10/19 21:29:36;;;;;;;11.07;6.80;;;;;;;10.18;67.92;100451.47;10392861;28;20053;-67
2022/10/19 21:34:38;;;;;;;17.88;7.60;;;;;;;10.12;67.81;100445.69;10375320;28;20273;-66
2022/10/19 21:39:40;;;;;;;15.43;7.22;;;;;;;10.01;68.04;100448.00;10390790;28;20053;-66
2022/10/19 21:44:42;;;;;;;14.60;7.30;;;;;;;9.96;68.14;100455.19;10391041;28;20050;-66
2022/10/19 21:49:44;;;;;;;19.33;7.80;;;;;;;9.91;68.21;100444.97;10390670;28;20084;-66
2022/10/19 21:54:46;;;;;;;10.95;6.63;;;;;;;9.73;68.55;100438.03;10390804;28;20045;-66
2022/10/19 21:59:47;;;;;;;12.18;6.47;;;;;;;9.67;68.73;100435.72;10385659;28;20915;-67
2022/10/19 22:04:49;;;;;;;11.25;6.53;;;;;;;9.68;68.81;100444.41;10390420;28;20053;-66
2022/10/19 22:09:51;;;;;;;13.38;6.40;;;;;;;9.59;68.53;100443.03;10389025;28;20457;-66
2022/10/19 22:14:53;;;;;;;20.33;6.97;;;;;;;9.59;68.87;100451.72;10388957;28;20053;-66
2022/10/19 22:19:55;;;;;;;16.90;6.47;;;;;;;9.84;68.62;100440.13;10388610;28;20045;-66
2022/10/19 22:24:57;;;;;;;17.52;7.22;;;;;;;9.85;68.35;100432.19;10389592;28;20320;-66
2022/10/19 22:29:59;;;;;;;13.30;7.07;;;;;;;9.78;68.54;100419.53;10388918;28;20131;-66
2022/10/19 22:35:01;;;;;;;21.15;7.45;;;;;;;9.76;68.70;100421.38;10389479;28;20064;-66
2022/10/19 22:40:03;;;;;;;14.63;6.38;;;;;;;9.75;68.54;100414.47;10389123;28;20545;-66
2022/10/19 22:45:05;;;;;;;13.35;6.85;;;;;;;9.70;68.41;100416.44;10389154;28;20436;-66
2022/10/19 22:50:10;;;;;;;13.45;7.43;;;;;;;9.62;68.33;100417.63;10386796;28;20501;-66
2022/10/19 22:55:12;;;;;;;12.07;6.80;;;;;;;9.41;68.63;100397.78;10389257;28;20053;-66
2022/10/19 23:00:14;;;;;;;16.02;7.18;;;;;;;9.34;68.82;100393.75;10386403;28;20098;-66
2022/10/19 23:05:16;;;;;;;16.50;7.30;;;;;;;9.30;69.11;100383.53;10387928;28;20065;-67
2022/10/19 23:10:18;;;;;;;13.60;7.97;;;;;;;9.22;69.11;100381.28;10387138;28;20091;-67